sensor_id;sensor_type;location;lat;lon;timestamp;temperature;humidity
71551;DHT22;59367;48.414;9.872;2023-06-10T00:01:00;17.38689423;58.65936279
71551;DHT22;59367;48.414;9.872;2023-06-10T00:02:08;17.38689423;58.77990723
71551;DHT22;59367;48.414;9.872;2023-06-10T00:03:16;17.35751724;58.60900879
71551;DHT22;59367;48.414;9.872;2023-06-10T00:04:24;17.32814407;58.88366699
71551;DHT22;59367;48.414;9.872;2023-06-10T00:05:33;17.31479263;58.95843506
71551;DHT22;59367;48.414;9.872;2023-06-10T00:06:41;17.31479263;59.04846191
71551;DHT22;59367;48.414;9.872;2023-06-10T00:07:49;17.28808975;59.05456543
71551;DHT22;59367;48.414;9.872;2023-06-10T00:08:56;17.25871658;59.0637207
71551;DHT22;59367;48.414;9.872;2023-06-10T00:10:04;17.24536514;59.0713501
71551;DHT22;59367;48.414;9.872;2023-06-10T00:11:13;17.25871658;59.2590332
71551;DHT22;59367;48.414;9.872;2023-06-10T00:12:21;17.24536514;59.41467285
71551;DHT22;59367;48.414;9.872;2023-06-10T00:13:29;17.20264053;59.51080322
71551;DHT22;59367;48.414;9.872;2023-06-10T00:14:37;17.18928909;59.73968506
71551;DHT22;59367;48.414;9.872;2023-06-10T00:15:46;17.18928909;59.69848633
71551;DHT22;59367;48.414;9.872;2023-06-10T00:16:54;17.17326736;59.79003906
71551;DHT22;59367;48.414;9.872;2023-06-10T00:18:02;17.17326736;59.96551514
71551;DHT22;59367;48.414;9.872;2023-06-10T00:19:11;17.15991592;60.11047363
71551;DHT22;59367;48.414;9.872;2023-06-10T00:20:19;17.14656448;60.14862061
71551;DHT22;59367;48.414;9.872;2023-06-10T00:21:27;17.14656448;60.13946533
71551;DHT22;59367;48.414;9.872;2023-06-10T00:22:35;17.13321304;60.04333496
71551;DHT22;59367;48.414;9.872;2023-06-10T00:23:43;17.15991592;59.73510742
71551;DHT22;59367;48.414;9.872;2023-06-10T00:24:51;17.13321304;59.39788818
71551;DHT22;59367;48.414;9.872;2023-06-10T00:25:59;17.13321304;59.33380127
71551;DHT22;59367;48.414;9.872;2023-06-10T00:27:07;17.14656448;59.23156738
71551;DHT22;59367;48.414;9.872;2023-06-10T00:28:15;17.13321304;59.16748047
71551;DHT22;59367;48.414;9.872;2023-06-10T00:29:23;17.09048462;59.15985107
71551;DHT22;59367;48.414;9.872;2023-06-10T00:30:31;17.07446289;59.21020508
71551;DHT22;59367;48.414;9.872;2023-06-10T00:31:39;17.07446289;59.2010498
71551;DHT22;59367;48.414;9.872;2023-06-10T00:32:47;17.03440857;59.07592773
71551;DHT22;59367;48.414;9.872;2023-06-10T00:33:55;17.01838684;59.08203125
71551;DHT22;59367;48.414;9.872;2023-06-10T00:35:03;17.01838684;59.21325684
71551;DHT22;59367;48.414;9.872;2023-06-10T00:36:12;17.01838684;59.37042236
71551;DHT22;59367;48.414;9.872;2023-06-10T00:37:19;16.97833252;59.32312012
71551;DHT22;59367;48.414;9.872;2023-06-10T00:38:27;16.96231079;59.41467285
71551;DHT22;59367;48.414;9.872;2023-06-10T00:39:35;16.96231079;59.37347412
71551;DHT22;59367;48.414;9.872;2023-06-10T00:40:46;16.94895935;59.5993042
71551;DHT22;59367;48.414;9.872;2023-06-10T00:41:53;16.93560791;59.47113037
71551;DHT22;59367;48.414;9.872;2023-06-10T00:43:01;16.90623474;59.41619873
71551;DHT22;59367;48.414;9.872;2023-06-10T00:44:09;16.90623474;59.36431885
71551;DHT22;59367;48.414;9.872;2023-06-10T00:45:17;16.90623474;59.29107666
71551;DHT22;59367;48.414;9.872;2023-06-10T00:46:26;16.86350632;59.2010498
71551;DHT22;59367;48.414;9.872;2023-06-10T00:47:34;16.87953186;59.39178467
71551;DHT22;59367;48.414;9.872;2023-06-10T00:48:42;16.86350632;59.6496582
71551;DHT22;59367;48.414;9.872;2023-06-10T00:49:51;16.83680344;59.51080322
71551;DHT22;59367;48.414;9.872;2023-06-10T00:51:00;16.823452;59.64508057
71551;DHT22;59367;48.414;9.872;2023-06-10T00:52:09;16.80475998;59.77783203
71551;DHT22;59367;48.414;9.872;2023-06-10T00:53:18;16.7780571;60.05554199
71551;DHT22;59367;48.414;9.872;2023-06-10T00:54:26;16.80475998;59.96398926
71551;DHT22;59367;48.414;9.872;2023-06-10T00:55:34;16.79140854;60.07843018
71551;DHT22;59367;48.414;9.872;2023-06-10T00:56:43;16.76203537;60.28137207
71551;DHT22;59367;48.414;9.872;2023-06-10T00:57:52;16.76203537;60.15777588
71551;DHT22;59367;48.414;9.872;2023-06-10T00:59:01;16.73533249;59.8815918
71551;DHT22;59367;48.414;9.872;2023-06-10T01:00:10;16.74868393;59.77783203
71551;DHT22;59367;48.414;9.872;2023-06-10T01:01:18;16.73533249;59.73510742
71551;DHT22;59367;48.414;9.872;2023-06-10T01:02:26;16.72198105;59.62982178
71551;DHT22;59367;48.414;9.872;2023-06-10T01:03:36;16.72198105;59.52606201
71551;DHT22;59367;48.414;9.872;2023-06-10T01:04:44;16.70595932;59.4619751
71551;DHT22;59367;48.414;9.872;2023-06-10T01:05:58;16.69260788;59.3963623
71551;DHT22;59367;48.414;9.872;2023-06-10T01:07:13;16.67925644;59.35211182
71551;DHT22;59367;48.414;9.872;2023-06-10T01:08:28;16.64988327;59.52606201
71551;DHT22;59367;48.414;9.872;2023-06-10T01:09:47;16.63653183;59.70001221
71551;DHT22;59367;48.414;9.872;2023-06-10T01:11:01;16.63653183;59.57641602
71551;DHT22;59367;48.414;9.872;2023-06-10T01:12:16;16.60715485;59.85107422
71551;DHT22;59367;48.414;9.872;2023-06-10T01:13:26;16.60715485;59.93652344
71551;DHT22;59367;48.414;9.872;2023-06-10T01:14:37;16.59380341;60.07995605
71551;DHT22;59367;48.414;9.872;2023-06-10T01:15:46;16.59380341;60.09216309
71551;DHT22;59367;48.414;9.872;2023-06-10T01:16:55;16.56710052;60.04638672
71551;DHT22;59367;48.414;9.872;2023-06-10T01:18:05;16.5510788;60.03265381
71551;DHT22;59367;48.414;9.872;2023-06-10T01:19:14;16.52437592;59.99755859
71551;DHT22;59367;48.414;9.872;2023-06-10T01:20:22;16.53772736;59.82208252
71551;DHT22;59367;48.414;9.872;2023-06-10T01:21:30;16.50835419;59.72290039
71551;DHT22;59367;48.414;9.872;2023-06-10T01:22:38;16.50835419;59.56726074
71551;DHT22;59367;48.414;9.872;2023-06-10T01:23:46;16.48165131;59.58557129
71551;DHT22;59367;48.414;9.872;2023-06-10T01:24:55;16.46829987;59.55200195
71551;DHT22;59367;48.414;9.872;2023-06-10T01:26:05;16.48165131;59.53369141
71551;DHT22;59367;48.414;9.872;2023-06-10T01:27:16;16.46829987;59.66644287
71551;DHT22;59367;48.414;9.872;2023-06-10T01:28:31;16.4389267;59.6206665
71551;DHT22;59367;48.414;9.872;2023-06-10T01:29:41;16.39620209;59.72747803
71551;DHT22;59367;48.414;9.872;2023-06-10T01:30:59;16.38285065;59.76715088
71551;DHT22;59367;48.414;9.872;2023-06-10T01:32:12;16.36949539;59.91363525
71551;DHT22;59367;48.414;9.872;2023-06-10T01:33:27;16.34012222;60.18829346
71551;DHT22;59367;48.414;9.872;2023-06-10T01:34:36;16.31341934;60.24780273
71551;DHT22;59367;48.414;9.872;2023-06-10T01:35:47;16.29739761;60.50567627
71551;DHT22;59367;48.414;9.872;2023-06-10T01:36:56;16.27069473;60.4598999
71551;DHT22;59367;48.414;9.872;2023-06-10T01:38:06;16.29739761;60.60028076
71551;DHT22;59367;48.414;9.872;2023-06-10T01:39:16;16.25734329;60.68725586
71551;DHT22;59367;48.414;9.872;2023-06-10T01:40:24;16.25734329;60.6338501
71551;DHT22;59367;48.414;9.872;2023-06-10T01:41:33;16.21461868;60.81542969
71551;DHT22;59367;48.414;9.872;2023-06-10T01:42:42;16.21461868;60.86730957
71551;DHT22;59367;48.414;9.872;2023-06-10T01:43:50;16.24132156;60.85205078
71551;DHT22;59367;48.414;9.872;2023-06-10T01:44:58;16.19859695;60.72845459
71551;DHT22;59367;48.414;9.872;2023-06-10T01:46:06;16.19859695;60.50109863
71551;DHT22;59367;48.414;9.872;2023-06-10T01:47:14;16.19859695;60.34393311
71551;DHT22;59367;48.414;9.872;2023-06-10T01:48:22;16.15854263;60.21270752
71551;DHT22;59367;48.414;9.872;2023-06-10T01:49:29;16.17189407;60.42327881
71551;DHT22;59367;48.414;9.872;2023-06-10T01:50:37;16.15854263;60.3805542
71551;DHT22;59367;48.414;9.872;2023-06-10T01:51:45;16.15854263;60.26611328
71551;DHT22;59367;48.414;9.872;2023-06-10T01:52:53;16.12916946;60.26153564
71551;DHT22;59367;48.414;9.872;2023-06-10T01:54:01;16.1425209;60.29510498
71551;DHT22;59367;48.414;9.872;2023-06-10T01:55:10;16.12916946;60.36682129
71551;DHT22;59367;48.414;9.872;2023-06-10T01:56:18;16.10246277;60.36224365
71551;DHT22;59367;48.414;9.872;2023-06-10T01:57:25;16.08644104;60.40344238
71551;DHT22;59367;48.414;9.872;2023-06-10T01:58:33;16.10246277;60.3302002
71551;DHT22;59367;48.414;9.872;2023-06-10T01:59:41;16.05973816;60.36682129
71551;DHT22;59367;48.414;9.872;2023-06-10T02:00:49;16.0730896;60.34851074
71551;DHT22;59367;48.414;9.872;2023-06-10T02:01:56;16.04371643;60.32104492
71551;DHT22;59367;48.414;9.872;2023-06-10T02:03:04;16.03036499;60.3729248
71551;DHT22;59367;48.414;9.872;2023-06-10T02:04:12;16.01434326;60.45379639
71551;DHT22;59367;48.414;9.872;2023-06-10T02:05:20;15.98497009;60.53161621
71551;DHT22;59367;48.414;9.872;2023-06-10T02:06:28;16.01434326;60.61859131
71551;DHT22;59367;48.414;9.872;2023-06-10T02:07:36;15.97161865;60.71624756
71551;DHT22;59367;48.414;9.872;2023-06-10T02:08:43;15.94491577;60.68267822
71551;DHT22;59367;48.414;9.872;2023-06-10T02:09:52;15.95826721;60.71624756
71551;DHT22;59367;48.414;9.872;2023-06-10T02:10:59;15.97161865;60.78948975
71551;DHT22;59367;48.414;9.872;2023-06-10T02:12:08;15.94491577;60.80780029
71551;DHT22;59367;48.414;9.872;2023-06-10T02:13:16;15.92889404;60.70098877
71551;DHT22;59367;48.414;9.872;2023-06-10T02:14:24;15.90219116;61.08093262
71551;DHT22;59367;48.414;9.872;2023-06-10T02:15:32;15.88616943;60.98480225
71551;DHT22;59367;48.414;9.872;2023-06-10T02:16:40;15.90219116;60.88409424
71551;DHT22;59367;48.414;9.872;2023-06-10T02:17:48;15.90219116;61.00921631
71551;DHT22;59367;48.414;9.872;2023-06-10T02:18:56;15.87281418;60.8291626
71551;DHT22;59367;48.414;9.872;2023-06-10T02:20:04;15.90219116;60.81085205
71551;DHT22;59367;48.414;9.872;2023-06-10T02:21:12;15.83008957;60.85205078
71551;DHT22;59367;48.414;9.872;2023-06-10T02:22:21;15.8461113;60.71929932
71551;DHT22;59367;48.414;9.872;2023-06-10T02:23:29;15.85946274;60.61859131
71551;DHT22;59367;48.414;9.872;2023-06-10T02:24:37;15.83008957;60.96801758
71551;DHT22;59367;48.414;9.872;2023-06-10T02:25:44;15.8461113;61.0534668
71551;DHT22;59367;48.414;9.872;2023-06-10T02:26:52;15.81673813;60.9954834
71551;DHT22;59367;48.414;9.872;2023-06-10T02:28:00;15.81673813;60.9664917
71551;DHT22;59367;48.414;9.872;2023-06-10T02:29:08;15.78736496;61.07330322
71551;DHT22;59367;48.414;9.872;2023-06-10T02:30:17;15.80338669;61.17248535
71551;DHT22;59367;48.414;9.872;2023-06-10T02:31:25;15.81673813;61.19232178
71551;DHT22;59367;48.414;9.872;2023-06-10T02:32:32;15.80338669;61.26556396
71551;DHT22;59367;48.414;9.872;2023-06-10T02:33:40;15.78736496;60.97106934
71551;DHT22;59367;48.414;9.872;2023-06-10T02:34:48;15.74731064;60.89324951
71551;DHT22;59367;48.414;9.872;2023-06-10T02:35:56;15.77401352;60.76049805
71551;DHT22;59367;48.414;9.872;2023-06-10T02:37:04;15.76066208;60.90393066
71551;DHT22;59367;48.414;9.872;2023-06-10T02:38:12;15.71793747;60.88867188
71551;DHT22;59367;48.414;9.872;2023-06-10T02:39:20;15.70458603;60.7711792
71551;DHT22;59367;48.414;9.872;2023-06-10T02:40:28;15.69123459;60.87188721
71551;DHT22;59367;48.414;9.872;2023-06-10T02:41:36;15.66186142;60.95275879
71551;DHT22;59367;48.414;9.872;2023-06-10T02:42:44;15.66186142;60.94360352
71551;DHT22;59367;48.414;9.872;2023-06-10T02:43:52;15.619133;61.14501953
71551;DHT22;59367;48.414;9.872;2023-06-10T02:44:59;15.619133;61.26861572
71551;DHT22;59367;48.414;9.872;2023-06-10T02:46:07;15.63248825;61.20605469
71551;DHT22;59367;48.414;9.872;2023-06-10T02:47:15;15.60578156;61.1831665
71551;DHT22;59367;48.414;9.872;2023-06-10T02:48:23;15.57640839;61.27319336
71551;DHT22;59367;48.414;9.872;2023-06-10T02:49:31;15.57640839;61.34338379
71551;DHT22;59367;48.414;9.872;2023-06-10T02:50:39;15.56305695;61.40289307
71551;DHT22;59367;48.414;9.872;2023-06-10T02:51:47;15.54970551;61.4654541
71551;DHT22;59367;48.414;9.872;2023-06-10T02:52:55;15.56305695;61.69586182
71551;DHT22;59367;48.414;9.872;2023-06-10T02:54:03;15.53635406;61.90948486
71551;DHT22;59367;48.414;9.872;2023-06-10T02:55:12;15.54970551;61.85913086
71551;DHT22;59367;48.414;9.872;2023-06-10T02:56:21;15.53635406;62.01171875
71551;DHT22;59367;48.414;9.872;2023-06-10T02:57:28;15.53635406;61.83624268
71551;DHT22;59367;48.414;9.872;2023-06-10T02:58:36;15.52033234;61.71875
71551;DHT22;59367;48.414;9.872;2023-06-10T02:59:44;15.52033234;61.48071289
71551;DHT22;59367;48.414;9.872;2023-06-10T03:00:52;15.49362946;61.5814209
71551;DHT22;59367;48.414;9.872;2023-06-10T03:02:00;15.46425629;61.67144775
71551;DHT22;59367;48.414;9.872;2023-06-10T03:03:08;15.47760773;61.66229248
71551;DHT22;59367;48.414;9.872;2023-06-10T03:04:16;15.46425629;61.76452637
71551;DHT22;59367;48.414;9.872;2023-06-10T03:05:24;15.46425629;61.76452637
71551;DHT22;59367;48.414;9.872;2023-06-10T03:06:32;15.42153168;61.71722412
71551;DHT22;59367;48.414;9.872;2023-06-10T03:07:40;15.46425629;61.71264648
71551;DHT22;59367;48.414;9.872;2023-06-10T03:08:48;15.46425629;61.73095703
71551;DHT22;59367;48.414;9.872;2023-06-10T03:09:56;15.42153168;61.59057617
71551;DHT22;59367;48.414;9.872;2023-06-10T03:11:03;15.3948288;61.57684326
71551;DHT22;59367;48.414;9.872;2023-06-10T03:12:12;15.42153168;61.69433594
71551;DHT22;59367;48.414;9.872;2023-06-10T03:13:20;15.3948288;61.76300049
71551;DHT22;59367;48.414;9.872;2023-06-10T03:14:29;15.38147736;61.68670654
71551;DHT22;59367;48.414;9.872;2023-06-10T03:15:36;15.38147736;61.88659668
71551;DHT22;59367;48.414;9.872;2023-06-10T03:16:44;15.35210037;62.19329834
71551;DHT22;59367;48.414;9.872;2023-06-10T03:17:52;15.38147736;62.550354
71551;DHT22;59367;48.414;9.872;2023-06-10T03:19:00;15.36545181;62.52441406
71551;DHT22;59367;48.414;9.872;2023-06-10T03:20:09;15.36545181;62.53662109
71551;DHT22;59367;48.414;9.872;2023-06-10T03:21:17;15.38147736;62.550354
71551;DHT22;59367;48.414;9.872;2023-06-10T03:22:25;15.38147736;62.68463135
71551;DHT22;59367;48.414;9.872;2023-06-10T03:23:33;15.38147736;62.94403076
71551;DHT22;59367;48.414;9.872;2023-06-10T03:24:41;15.36545181;63.00354004
71551;DHT22;59367;48.414;9.872;2023-06-10T03:25:49;15.3948288;62.85247803
71551;DHT22;59367;48.414;9.872;2023-06-10T03:26:57;15.38147736;62.38250732
71551;DHT22;59367;48.414;9.872;2023-06-10T03:28:05;15.38147736;61.84234619
71551;DHT22;59367;48.414;9.872;2023-06-10T03:29:13;15.36545181;61.59362793
71551;DHT22;59367;48.414;9.872;2023-06-10T03:30:21;15.36545181;61.47918701
71551;DHT22;59367;48.414;9.872;2023-06-10T03:31:29;15.3948288;61.43035889
71551;DHT22;59367;48.414;9.872;2023-06-10T03:32:37;15.36545181;61.38458252
71551;DHT22;59367;48.414;9.872;2023-06-10T03:33:44;15.33874893;61.29760742
71551;DHT22;59367;48.414;9.872;2023-06-10T03:34:52;15.33874893;61.36932373
71551;DHT22;59367;48.414;9.872;2023-06-10T03:36:00;15.3227272;61.36016846
71551;DHT22;59367;48.414;9.872;2023-06-10T03:37:08;15.3227272;61.33728027
71551;DHT22;59367;48.414;9.872;2023-06-10T03:38:16;15.3227272;61.38916016
71551;DHT22;59367;48.414;9.872;2023-06-10T03:39:24;15.30937576;61.46087646
71551;DHT22;59367;48.414;9.872;2023-06-10T03:40:32;15.30937576;61.5524292
71551;DHT22;59367;48.414;9.872;2023-06-10T03:41:39;15.33874893;61.84692383
71551;DHT22;59367;48.414;9.872;2023-06-10T03:42:47;15.33874893;61.90032959
71551;DHT22;59367;48.414;9.872;2023-06-10T03:43:55;15.3227272;62.00256348
71551;DHT22;59367;48.414;9.872;2023-06-10T03:45:03;15.3227272;62.30316162
71551;DHT22;59367;48.414;9.872;2023-06-10T03:46:12;15.3227272;62.19787598
71551;DHT22;59367;48.414;9.872;2023-06-10T03:47:20;15.33874893;62.03460693
71551;DHT22;59367;48.414;9.872;2023-06-10T03:48:28;15.3227272;62.1887207
71551;DHT22;59367;48.414;9.872;2023-06-10T03:49:35;15.3227272;62.00256348
71551;DHT22;59367;48.414;9.872;2023-06-10T03:50:43;15.33874893;61.98272705
71551;DHT22;59367;48.414;9.872;2023-06-10T03:51:51;15.35210037;61.89117432
71551;DHT22;59367;48.414;9.872;2023-06-10T03:52:59;15.33874893;62.02392578
71551;DHT22;59367;48.414;9.872;2023-06-10T03:54:07;15.33874893;61.98272705
71551;DHT22;59367;48.414;9.872;2023-06-10T03:55:15;15.33874893;61.86981201
71551;DHT22;59367;48.414;9.872;2023-06-10T03:56:23;15.35210037;61.9430542
71551;DHT22;59367;48.414;9.872;2023-06-10T03:57:31;15.35210037;61.82861328
71551;DHT22;59367;48.414;9.872;2023-06-10T03:58:39;15.35210037;62.04833984
71551;DHT22;59367;48.414;9.872;2023-06-10T03:59:47;15.33874893;61.94152832
71551;DHT22;59367;48.414;9.872;2023-06-10T04:00:55;15.35210037;61.65313721
71551;DHT22;59367;48.414;9.872;2023-06-10T04:02:04;15.36545181;61.33270264
71551;DHT22;59367;48.414;9.872;2023-06-10T04:03:12;15.36545181;61.20910645
71551;DHT22;59367;48.414;9.872;2023-06-10T04:04:21;15.36545181;61.16790771
71551;DHT22;59367;48.414;9.872;2023-06-10T04:05:29;15.36545181;61.26098633
71551;DHT22;59367;48.414;9.872;2023-06-10T04:06:37;15.35210037;61.34185791
71551;DHT22;59367;48.414;9.872;2023-06-10T04:07:45;15.36545181;61.32354736
71551;DHT22;59367;48.414;9.872;2023-06-10T04:08:53;15.36545181;61.50817871
71551;DHT22;59367;48.414;9.872;2023-06-10T04:10:01;15.35210037;61.65313721
71551;DHT22;59367;48.414;9.872;2023-06-10T04:11:09;15.35210037;61.74621582
71551;DHT22;59367;48.414;9.872;2023-06-10T04:12:17;15.35210037;61.75537109
71551;DHT22;59367;48.414;9.872;2023-06-10T04:13:25;15.36545181;61.66687012
71551;DHT22;59367;48.414;9.872;2023-06-10T04:14:33;15.35210037;61.80877686
71551;DHT22;59367;48.414;9.872;2023-06-10T04:15:40;15.35210037;61.82861328
71551;DHT22;59367;48.414;9.872;2023-06-10T04:16:49;15.36545181;61.95678711
71551;DHT22;59367;48.414;9.872;2023-06-10T04:17:57;15.36545181;62.11090088
71551;DHT22;59367;48.414;9.872;2023-06-10T04:19:05;15.36545181;62.2253418
71551;DHT22;59367;48.414;9.872;2023-06-10T04:20:13;15.38147736;62.16583252
71551;DHT22;59367;48.414;9.872;2023-06-10T04:21:21;15.36545181;62.33062744
71551;DHT22;59367;48.414;9.872;2023-06-10T04:22:29;15.36545181;62.4130249
71551;DHT22;59367;48.414;9.872;2023-06-10T04:23:38;15.36545181;62.47406006
71551;DHT22;59367;48.414;9.872;2023-06-10T04:24:46;15.3948288;62.51068115
71551;DHT22;59367;48.414;9.872;2023-06-10T04:25:54;15.42153168;62.57476807
71551;DHT22;59367;48.414;9.872;2023-06-10T04:27:02;15.3948288;62.59307861
71551;DHT22;59367;48.414;9.872;2023-06-10T04:28:10;15.3948288;62.46948242
71551;DHT22;59367;48.414;9.872;2023-06-10T04:29:18;15.40818024;62.449646
71551;DHT22;59367;48.414;9.872;2023-06-10T04:30:26;15.42153168;62.72125244
71551;DHT22;59367;48.414;9.872;2023-06-10T04:31:34;15.45090485;62.8616333
71551;DHT22;59367;48.414;9.872;2023-06-10T04:32:42;15.46425629;63.00964355
71551;DHT22;59367;48.414;9.872;2023-06-10T04:33:50;15.45090485;63.18206787
71551;DHT22;59367;48.414;9.872;2023-06-10T04:34:59;15.47760773;63.26904297
71551;DHT22;59367;48.414;9.872;2023-06-10T04:36:07;15.5069809;63.34838867
71551;DHT22;59367;48.414;9.872;2023-06-10T04:37:15;15.52033234;63.45214844
71551;DHT22;59367;48.414;9.872;2023-06-10T04:38:23;15.52033234;63.36975098
71551;DHT22;59367;48.414;9.872;2023-06-10T04:39:31;15.54970551;63.32092285
71551;DHT22;59367;48.414;9.872;2023-06-10T04:40:39;15.59243011;63.58947754
71551;DHT22;59367;48.414;9.872;2023-06-10T04:41:47;15.59243011;63.70391846
71551;DHT22;59367;48.414;9.872;2023-06-10T04:42:54;15.619133;63.57269287
71551;DHT22;59367;48.414;9.872;2023-06-10T04:44:02;15.66186142;63.54827881
71551;DHT22;59367;48.414;9.872;2023-06-10T04:45:11;15.69123459;63.57269287
71551;DHT22;59367;48.414;9.872;2023-06-10T04:46:19;15.69123459;63.67797852
71551;DHT22;59367;48.414;9.872;2023-06-10T04:47:27;15.71793747;63.87939453
71551;DHT22;59367;48.414;9.872;2023-06-10T04:48:35;15.76066208;63.85498047
71551;DHT22;59367;48.414;9.872;2023-06-10T04:49:43;15.78736496;63.8885498
71551;DHT22;59367;48.414;9.872;2023-06-10T04:50:51;15.78736496;64.00299072
71551;DHT22;59367;48.414;9.872;2023-06-10T04:51:58;15.83008957;64.16778564
71551;DHT22;59367;48.414;9.872;2023-06-10T04:53:06;15.85946274;64.16168213
71551;DHT22;59367;48.414;9.872;2023-06-10T04:54:14;15.87281418;64.13116455
71551;DHT22;59367;48.414;9.872;2023-06-10T04:55:22;15.90219116;64.12658691
71551;DHT22;59367;48.414;9.872;2023-06-10T04:56:30;15.92889404;64.09912109
71551;DHT22;59367;48.414;9.872;2023-06-10T04:57:39;15.94491577;64.2364502
71551;DHT22;59367;48.414;9.872;2023-06-10T04:58:46;15.98497009;64.44091797
71551;DHT22;59367;48.414;9.872;2023-06-10T04:59:55;16.03036499;64.52026367
71551;DHT22;59367;48.414;9.872;2023-06-10T05:01:02;16.05973816;64.58740234
71551;DHT22;59367;48.414;9.872;2023-06-10T05:02:11;16.08644104;64.57061768
71551;DHT22;59367;48.414;9.872;2023-06-10T05:03:19;16.11581421;64.39056396
71551;DHT22;59367;48.414;9.872;2023-06-10T05:04:27;16.15854263;64.58282471
71551;DHT22;59367;48.414;9.872;2023-06-10T05:05:34;16.15854263;64.79949951
71551;DHT22;59367;48.414;9.872;2023-06-10T05:06:42;16.22797012;64.80255127
71551;DHT22;59367;48.414;9.872;2023-06-10T05:07:50;16.24132156;64.83612061
71551;DHT22;59367;48.414;9.872;2023-06-10T05:08:58;16.27069473;64.84985352
71551;DHT22;59367;48.414;9.872;2023-06-10T05:10:07;16.28404617;65.08178711
71551;DHT22;59367;48.414;9.872;2023-06-10T05:11:15;16.34012222;65.06958008
71551;DHT22;59367;48.414;9.872;2023-06-10T05:12:23;16.38285065;64.99481201
71551;DHT22;59367;48.414;9.872;2023-06-10T05:13:31;16.39620209;65.05889893
71551;DHT22;59367;48.414;9.872;2023-06-10T05:14:39;16.48165131;64.99938965
71551;DHT22;59367;48.414;9.872;2023-06-10T05:15:47;16.49500275;64.92767334
71551;DHT22;59367;48.414;9.872;2023-06-10T05:16:55;16.50835419;64.85748291
71551;DHT22;59367;48.414;9.872;2023-06-10T05:18:03;16.59380341;64.87121582
71551;DHT22;59367;48.414;9.872;2023-06-10T05:19:11;16.62317657;65.06347656
71551;DHT22;59367;48.414;9.872;2023-06-10T05:20:19;16.665905;64.82086182
71551;DHT22;59367;48.414;9.872;2023-06-10T05:21:27;16.72198105;64.77661133
71551;DHT22;59367;48.414;9.872;2023-06-10T05:22:35;16.74868393;64.71710205
71551;DHT22;59367;48.414;9.872;2023-06-10T05:23:43;16.7780571;64.70336914
71551;DHT22;59367;48.414;9.872;2023-06-10T05:24:51;16.83680344;64.67132568
71551;DHT22;59367;48.414;9.872;2023-06-10T05:25:59;16.87953186;64.59350586
71551;DHT22;59367;48.414;9.872;2023-06-10T05:27:08;16.94895935;64.60571289
71551;DHT22;59367;48.414;9.872;2023-06-10T05:28:16;16.94895935;64.62554932
71551;DHT22;59367;48.414;9.872;2023-06-10T05:29:23;17.0050354;64.75830078
71551;DHT22;59367;48.414;9.872;2023-06-10T05:30:31;17.03440857;64.73388672
71551;DHT22;59367;48.414;9.872;2023-06-10T05:31:39;17.10383606;64.63928223
71551;DHT22;59367;48.414;9.872;2023-06-10T05:32:47;17.13321304;64.48822021
71551;DHT22;59367;48.414;9.872;2023-06-10T05:33:55;17.15991592;64.4821167
71551;DHT22;59367;48.414;9.872;2023-06-10T05:35:03;17.18928909;64.51873779
71551;DHT22;59367;48.414;9.872;2023-06-10T05:36:12;17.25871658;64.66522217
71551;DHT22;59367;48.414;9.872;2023-06-10T05:37:20;17.27206802;64.71710205
71551;DHT22;59367;48.414;9.872;2023-06-10T05:38:28;17.31479263;64.65301514
71551;DHT22;59367;48.414;9.872;2023-06-10T05:39:36;17.35751724;64.88037109
71551;DHT22;59367;48.414;9.872;2023-06-10T05:40:45;17.40024567;64.78118896
71551;DHT22;59367;48.414;9.872;2023-06-10T05:41:53;17.46967316;64.80255127
71551;DHT22;59367;48.414;9.872;2023-06-10T05:43:01;17.4830246;64.94140625
71551;DHT22;59367;48.414;9.872;2023-06-10T05:44:09;17.54177094;64.85748291
71551;DHT22;59367;48.414;9.872;2023-06-10T05:45:18;17.56847382;64.55688477
71551;DHT22;59367;48.414;9.872;2023-06-10T05:46:25;17.58182526;64.58892822
71551;DHT22;59367;48.414;9.872;2023-06-10T05:47:33;17.64057541;64.36920166
71551;DHT22;59367;48.414;9.872;2023-06-10T05:48:41;17.66994858;64.52026367
71551;DHT22;59367;48.414;9.872;2023-06-10T05:49:49;17.71267319;64.68505859
71551;DHT22;59367;48.414;9.872;2023-06-10T05:50:57;17.7553978;64.83612061
71551;DHT22;59367;48.414;9.872;2023-06-10T05:52:06;17.76874924;64.97650146
71551;DHT22;59367;48.414;9.872;2023-06-10T05:53:14;17.82482529;64.80712891
71551;DHT22;59367;48.414;9.872;2023-06-10T05:54:22;17.85419846;64.73846436
71551;DHT22;59367;48.414;9.872;2023-06-10T05:55:30;17.8675499;64.72930908
71551;DHT22;59367;48.414;9.872;2023-06-10T05:56:38;17.9369812;64.89868164
71551;DHT22;59367;48.414;9.872;2023-06-10T05:57:46;17.99305725;64.9810791
71551;DHT22;59367;48.414;9.872;2023-06-10T05:58:54;18.03578186;64.76745605
71551;DHT22;59367;48.414;9.872;2023-06-10T06:00:02;18.06515503;64.74914551
71551;DHT22;59367;48.414;9.872;2023-06-10T06:01:10;18.10520935;65.0100708
71551;DHT22;59367;48.414;9.872;2023-06-10T06:02:18;18.13458633;65.72418213
71551;DHT22;59367;48.414;9.872;2023-06-10T06:03:26;18.19066238;65.88287354
71551;DHT22;59367;48.414;9.872;2023-06-10T06:04:34;18.24673843;65.97442627